HOURLY OBS INDEX

007

Murchison

32KM SOUTH OF JUNA DOWNS

Site: 007CWA
Alt: 850m
104km WNW of NEWMAN


  Time     Wind        Temp  DP   Baro     Rain since   Rain past  Vis(m), Cloud(base in m), Weather
  local        km/h                         9am  last   hr   10m    
Wed 14:00  ESE 20/ 33  25.1 -6.3  1018.7    0.0   0.0   0.0   0.0   10000 
Wed 14:30  SSE 19/ 24  24.8 -6.5  1018.3    0.0   0.0   0.0   0.0   10000 
Wed 15:00  SSE 22/ 32  25.3 -6.1  1018.0    0.0   0.0   0.0   0.0   10000 
Wed 15:30    E 15/ 19  25.7 -6.9  1018.0    0.0   0.0   0.0   0.0   10000 
Wed 16:00   SE 22/ 33  25.2 -6.2  1018.0    0.0   0.0   0.0   0.0   10000 
Wed 16:30  ESE 20/ 33  25.1 -7.4  1018.1    0.0   0.0   0.0   0.0   10000 
Wed 17:00   SE 22/ 33  24.3 -6.9  1018.5    0.0   0.0   0.0   0.0   10000 
Wed 17:30  ESE 19/ 28  23.9 -7.2  1018.8    0.0   0.0   0.0   0.0   10000 
Wed 18:00  ESE 22/ 28  23.0 -6.9  1019.2    0.0   0.0   0.0   0.0   10000 
Wed 18:30   SE 17/ 24  22.1 -7.6  1019.6    0.0   0.0   0.0   0.0   10000 
Wed 19:00   SE 17/ 22  21.1 -7.4  1020.1    0.0   0.0   0.0   0.0   10000 

40KM EAST OF JUNA DOWNS

Site: 007BRY
Alt: 615m
96km NW of NEWMAN


  Time     Wind        Temp  DP   Baro     Rain since   Rain past  Vis(m), Cloud(base in m), Weather
  local        km/h                         9am  last   hr   10m    
Wed 14:00   SE 26/ 33  25.2 -4.2  1018.3    0.0   0.0   0.0   0.0   10000 
Wed 14:30    E 22/ 30  25.9 -4.6  1018.0    0.0   0.0   0.0   0.0   10000 
Wed 15:00   SE 26/ 43  25.7 -4.7  1017.9    0.0   0.0   0.0   0.0   10000 
Wed 15:30    E 22/ 35  25.0 -5.3  1017.9    0.0   0.0   0.0   0.0   10000 
Wed 16:00    E 20/ 30  25.2 -5.1  1018.0    0.0   0.0   0.0   0.0   10000 
Wed 16:30    E 20/ 30  25.1 -5.2  1018.1    0.0   0.0   0.0   0.0   10000 
Wed 17:00    E 22/ 32  23.9 -5.2  1018.3    0.0   0.0   0.0   0.0   10000 
Wed 17:30    E 19/ 26  23.9 -5.2  1018.5    0.0   0.0   0.0   0.0   10000 
Wed 18:00    E 17/ 24  22.8 -5.2  1019.1    0.0   0.0   0.0   0.0   10000 
Wed 18:30    E 13/ 19  22.0 -5.8  1019.4    0.0   0.0   0.0   0.0   10000 
Wed 19:00  ESE 13/ 17  21.3 -5.5  1019.9    0.0   0.0   0.0   0.0   10000 

DEGRUSSA COPPER MINE

Site: 007DGU
Alt: 475m
141km NNE of MEEKATHARRA


  Time     Wind        Temp  DP   Baro     Rain since   Rain past  Vis(m), Cloud(base in m), Weather
  local        km/h                         9am  last   hr   10m    
Wed 14:00  ESE 24/ 39  23.4 -5.6  1020.6    0.0   0.0   0.0   0.0   10000 
Wed 14:30   SE 24/ 30  23.9 -6.2  1020.3    0.0   0.0   0.0   0.0   10000 
Wed 15:00  ESE 24/ 39  23.7 -6.3  1020.0    0.0   0.0   0.0   0.0   10000 
Wed 15:30    E 20/ 37  24.2 -7.0  1019.8    0.0   0.0   0.0   0.0   10000 
Wed 16:00  ESE 22/ 35  23.6 -6.4  1019.8    0.0   0.0   0.0   0.0   10000 
Wed 16:30  ESE 22/ 33  24.0 -8.2  1020.0    0.0   0.0   0.0   0.0   10000 
Wed 17:00  ESE 22/ 32  23.0 -7.9  1020.2    0.0   0.0   0.0   0.0   10000 
Wed 17:30  ESE 24/ 33  22.5 -7.3  1020.5    0.0   0.0   0.0   0.0   10000 
Wed 18:00  ESE 19/ 30  21.9 -7.7  1021.0    0.0   0.0   0.0   0.0   10000 
Wed 18:30  ESE 15/ 24  21.2 -7.3  1021.5    0.0   0.0   0.0   0.0   10000 
Wed 19:00  ESE  9/ 11  20.0 -8.3  1022.0    0.0   0.0   0.0   0.0   10000 

MEEKATHARRA AIRPORT

Site: 007045
Alt: 517.0m
5km SE of MEEKATHARRA


  Time     Wind        Temp  DP   Baro     Rain since   Rain past  Vis(m), Cloud(base in m), Weather
  local        km/h                         9am  last   hr   10m    
Wed 14:00  SSE 17/ 20  23.5 -6.5  1021.7    0.0   0.0   0.0   0.0   10000 
Wed 14:30  ESE 19/ 32  23.9 -6.2  1021.3    0.0   0.0   0.0   0.0   10000 
Wed 15:00    E 20/ 33  23.4 -7.6  1021.1    0.0   0.0   0.0   0.0   10000 
Wed 15:30   SE 20/ 30  23.9 -7.2  1021.0    0.0   0.0   0.0   0.0   10000 
Wed 16:00  SSE 17/ 24  24.1 -8.2  1020.8    0.0   0.0   0.0   0.0   10000 
Wed 16:30  ESE 19/ 32  23.4 -9.9  1020.9    0.0   0.0   0.0   0.0   10000 
Wed 17:00  ESE 19/ 28  23.3-10.0  1021.0    0.0   0.0   0.0   0.0   10000 
Wed 17:30  SSE 19/ 24  22.6 -8.2  1021.2    0.0   0.0   0.0   0.0   10000 
Wed 18:00   SE 20/ 28  21.8 -7.8  1021.5    0.0   0.0   0.0   0.0   10000 
Wed 18:30   SE 13/ 20  21.0 -8.4  1021.9    0.0   0.0   0.0   0.0   10000 
Wed 19:00   SE 13/ 19  20.2 -8.1  1022.3    0.0   0.0   0.0   0.0   10000 

MOUNT MAGNET AERO

Site: 007600
Alt: 407.0m
6km S of MOUNT MAGNET


  Time     Wind        Temp  DP   Baro     Rain since   Rain past  Vis(m), Cloud(base in m), Weather
  local        km/h                         9am  last   hr   10m    
Wed 14:00  ESE 22/ 35  22.8  0.0  1023.1    0.0   0.0   0.0   0.0   ----- 
Wed 14:30   SE 24/ 32  22.5 -0.3  1022.8    0.0   0.0   0.0   0.0   ----- 
Wed 15:00   SE 17/ 24  22.7 -0.7  1022.6    0.0   0.0   0.0   0.0   ----- 
Wed 15:30  ESE 19/ 32  22.9 -0.6  1022.3    0.0   0.0   0.0   0.0   ----- 
Wed 16:00  ESE 20/ 30  23.3 -0.2  1022.3    0.0   0.0   0.0   0.0   ----- 
Wed 16:30  ESE 17/ 26  23.3 -0.2  1022.3    0.0   0.0   0.0   0.0   ----- 
Wed 17:00  ESE 20/ 32  22.9 -0.6  1022.3    0.0   0.0   0.0   0.0   ----- 
Wed 17:30   SE 20/ 28  22.6 -0.2  1022.4    0.0   0.0   0.0   0.0   ----- 
Wed 18:00   SE 19/ 26  22.0 -0.1  1022.6    0.0   0.0   0.0   0.0   ----- 
Wed 18:30   SE 17/ 20  21.3 -0.6  1023.0    0.0   0.0   0.0   0.0   ----- 
Wed 19:00  ESE 13/ 17  20.7 -0.6  1023.3    0.0   0.0   0.0   0.0   ----- 

NEWMAN AERO

Site: 007176
Alt: 524.0m
10km SE of NEWMAN


  Time     Wind        Temp  DP   Baro     Rain since   Rain past  Vis(m), Cloud(base in m), Weather
  local        km/h                         9am  last   hr   10m    
Wed 14:00  ESE 19/ 30  25.1 -8.6  1018.6    0.0   0.0   0.0   0.0   10000 
Wed 14:30   SE 20/ 32  25.5 -8.3  1018.3    0.0   0.0   0.0   0.0   10000 
Wed 15:00   SE 20/ 32  25.4 -9.7  1018.1    0.0   0.0   0.0   0.0   10000 
Wed 15:30  ESE 20/ 28  25.6 -9.6  1017.9    0.0   0.0   0.0   0.0   10000 
Wed 16:00  ESE 19/ 30  25.0 -8.7  1017.9    0.0   0.0   0.0   0.0   10000 
Wed 16:30    E 19/ 35  25.1 -8.6  1018.1    0.0   0.0   0.0   0.0   10000 
Wed 17:00  ESE 17/ 26  24.8 -8.8  1018.3    0.0   0.0   0.0   0.0   10000 
Wed 17:30  ESE 19/ 26  24.3 -9.2  1018.5    0.0   0.0   0.0   0.0   10000 
Wed 18:00  ESE 19/ 28  23.3 -8.8  1018.9    0.0   0.0   0.0   0.0   10000 
Wed 18:30  ESE 13/ 15  22.2 -9.6  1019.6    0.0   0.0   0.0   0.0   10000 
Wed 19:00  ESE 11/ 15  21.3 -9.2  1020.0    0.0   0.0   0.0   0.0   10000 

PARABURDOO AERO

Site: 007185
Alt: 423.7m
3km NNW of PARABURDOO


  Time     Wind        Temp  DP   Baro     Rain since   Rain past  Vis(m), Cloud(base in m), Weather
  local        km/h                         9am  last   hr   10m    
Wed 14:00  ENE 17/ 28  28.1 -3.9  1016.8    0.0   0.0   0.0   0.0   10000 
Wed 14:30    E 24/ 32  29.1 -4.3  1016.4    0.0   0.0   0.0   0.0   10000 
Wed 15:00   SE 20/ 26  28.1 -5.1  1016.3    0.0   0.0   0.0   0.0   10000 
Wed 15:30  ESE 17/ 30  28.5 -6.0  1016.1    0.0   0.0   0.0   0.0   10000 
Wed 16:00  ENE 20/ 30  27.7 -5.4  1016.1    0.0   0.0   0.0   0.0   10000 
Wed 16:30  ESE 20/ 28  27.4 -5.6  1016.2    0.0   0.0   0.0   0.0   10000 
Wed 17:00  ESE 17/ 28  27.4 -5.6  1016.5    0.0   0.0   0.0   0.0   10000 
Wed 17:30  ESE 20/ 28  26.7 -6.2  1016.7    0.0   0.0   0.0   0.0   10000 
Wed 18:00   SE 17/ 24  25.8 -6.9  1017.0    0.0   0.0   0.0   0.0   10000 
Wed 18:30  SSE 17/ 24  24.9 -7.5  1017.4    0.0   0.0   0.0   0.0   10000 
Wed 19:00   SE 19/ 30  24.6 -7.8  1017.9    0.0   0.0   0.0   0.0   10000 

WEST ANGELAS MINE

Site: 007ANG
Alt: 685m
108km WNW of NEWMAN


  Time     Wind        Temp  DP   Baro     Rain since   Rain past  Vis(m), Cloud(base in m), Weather
  local        km/h                         9am  last   hr   10m    
Wed 18:00  ESE 15/ 26  22.6 -6.2  1019.3   ----   0.0   0.0   0.0   10000 
Wed 18:30    E 11/ 17  21.5 -6.2  1019.6   ----  ----   0.0   0.0   10000 
Wed 19:00    E 13/ 17  21.1 -6.5  1020.0   ----  ----  ----   0.0   10000